Terminal Aerodrome Forecast
Issued by NWS Charleston, WV

Current Version | Previous Version | Text Only | Print | Product List | Glossary Off
Versions: 1 2 3 4 5 6 7 8 9 10 11 12 13 14 15 16 17 18 19 20 21 22 23

000
FTUS41 KRLX 201700
TAFBKW
TAF
KBKW 201720Z 2018/2118 11010KT P6SM SKC
      TEMPO 2018/2022 11010G16KT
     FM210000 13004KT P6SM SKC
     FM210300 00000KT P6SM SKC
     FM211600 26004KT P6SM SCT250=

USA.gov is the U.S. government's official web portal to all federal, state and local government web resources and services.